sensor_id;sensor_type;location;lat;lon;timestamp;temperature;humidity
10451;DHT22;5273;51.290;6.918;2022-08-19T00:02:01;20.30;96.50
10451;DHT22;5273;51.290;6.918;2022-08-19T00:04:31;20.10;96.80
10451;DHT22;5273;51.290;6.918;2022-08-19T00:07:00;20.10;97.20
10451;DHT22;5273;51.290;6.918;2022-08-19T00:09:27;20.10;97.70
10451;DHT22;5273;51.290;6.918;2022-08-19T00:11:56;20.00;98.20
10451;DHT22;5273;51.290;6.918;2022-08-19T00:14:24;19.90;98.70
10451;DHT22;5273;51.290;6.918;2022-08-19T00:16:54;19.90;99.10
10451;DHT22;5273;51.290;6.918;2022-08-19T00:19:21;19.90;99.30
10451;DHT22;5273;51.290;6.918;2022-08-19T00:21:49;19.80;99.50
10451;DHT22;5273;51.290;6.918;2022-08-19T00:24:16;19.90;99.70
10451;DHT22;5273;51.290;6.918;2022-08-19T00:26:43;19.90;99.90
10451;DHT22;5273;51.290;6.918;2022-08-19T00:29:14;19.90;99.90
10451;DHT22;5273;51.290;6.918;2022-08-19T00:31:41;19.80;99.90
10451;DHT22;5273;51.290;6.918;2022-08-19T00:34:11;19.80;99.90
10451;DHT22;5273;51.290;6.918;2022-08-19T00:36:38;19.80;99.90
10451;DHT22;5273;51.290;6.918;2022-08-19T00:39:06;19.90;99.90
10451;DHT22;5273;51.290;6.918;2022-08-19T00:41:33;19.90;99.90
10451;DHT22;5273;51.290;6.918;2022-08-19T00:44:02;19.90;99.90
10451;DHT22;5273;51.290;6.918;2022-08-19T00:46:30;19.90;99.90
10451;DHT22;5273;51.290;6.918;2022-08-19T00:48:58;19.90;99.90
10451;DHT22;5273;51.290;6.918;2022-08-19T00:51:29;19.80;99.90
10451;DHT22;5273;51.290;6.918;2022-08-19T00:53:58;19.70;99.90
10451;DHT22;5273;51.290;6.918;2022-08-19T00:56:26;19.70;99.90
10451;DHT22;5273;51.290;6.918;2022-08-19T00:58:55;19.60;99.90
10451;DHT22;5273;51.290;6.918;2022-08-19T01:01:22;19.60;99.90
10451;DHT22;5273;51.290;6.918;2022-08-19T01:03:50;19.50;99.90
10451;DHT22;5273;51.290;6.918;2022-08-19T01:06:17;19.60;99.90
10451;DHT22;5273;51.290;6.918;2022-08-19T01:08:45;19.50;99.90
10451;DHT22;5273;51.290;6.918;2022-08-19T01:11:12;19.50;99.90
10451;DHT22;5273;51.290;6.918;2022-08-19T01:13:39;19.50;99.90
10451;DHT22;5273;51.290;6.918;2022-08-19T01:16:09;19.40;99.90
10451;DHT22;5273;51.290;6.918;2022-08-19T01:18:39;19.50;99.90
10451;DHT22;5273;51.290;6.918;2022-08-19T01:21:10;19.40;99.90
10451;DHT22;5273;51.290;6.918;2022-08-19T01:23:43;19.30;99.90
10451;DHT22;5273;51.290;6.918;2022-08-19T01:26:11;19.30;99.90
10451;DHT22;5273;51.290;6.918;2022-08-19T01:28:39;19.20;99.90
10451;DHT22;5273;51.290;6.918;2022-08-19T01:31:13;19.20;99.90
10451;DHT22;5273;51.290;6.918;2022-08-19T01:33:41;19.10;99.90
10451;DHT22;5273;51.290;6.918;2022-08-19T01:36:14;19.20;99.90
10451;DHT22;5273;51.290;6.918;2022-08-19T01:38:43;19.20;99.90
10451;DHT22;5273;51.290;6.918;2022-08-19T01:41:12;19.20;99.90
10451;DHT22;5273;51.290;6.918;2022-08-19T01:43:39;19.20;99.90
10451;DHT22;5273;51.290;6.918;2022-08-19T01:46:06;19.20;99.90
10451;DHT22;5273;51.290;6.918;2022-08-19T01:48:34;19.20;99.90
10451;DHT22;5273;51.290;6.918;2022-08-19T01:51:01;19.20;99.90
10451;DHT22;5273;51.290;6.918;2022-08-19T01:53:28;19.20;99.90
10451;DHT22;5273;51.290;6.918;2022-08-19T01:55:57;19.20;99.90
10451;DHT22;5273;51.290;6.918;2022-08-19T01:58:27;19.20;99.90
10451;DHT22;5273;51.290;6.918;2022-08-19T02:00:56;19.20;99.90
10451;DHT22;5273;51.290;6.918;2022-08-19T02:03:24;19.20;99.90
10451;DHT22;5273;51.290;6.918;2022-08-19T02:05:54;19.10;99.90
10451;DHT22;5273;51.290;6.918;2022-08-19T02:08:21;19.20;99.90
10451;DHT22;5273;51.290;6.918;2022-08-19T02:10:48;19.20;99.90
10451;DHT22;5273;51.290;6.918;2022-08-19T02:13:17;19.30;99.90
10451;DHT22;5273;51.290;6.918;2022-08-19T02:15:44;19.30;99.90
10451;DHT22;5273;51.290;6.918;2022-08-19T02:18:11;19.30;99.90
10451;DHT22;5273;51.290;6.918;2022-08-19T02:20:40;19.20;99.90
10451;DHT22;5273;51.290;6.918;2022-08-19T02:23:09;19.20;99.90
10451;DHT22;5273;51.290;6.918;2022-08-19T02:25:36;19.20;99.90
10451;DHT22;5273;51.290;6.918;2022-08-19T02:28:04;19.10;99.90
10451;DHT22;5273;51.290;6.918;2022-08-19T02:30:32;19.10;99.90
10451;DHT22;5273;51.290;6.918;2022-08-19T02:32:59;19.10;99.90
10451;DHT22;5273;51.290;6.918;2022-08-19T02:35:26;19.10;99.90
10451;DHT22;5273;51.290;6.918;2022-08-19T02:37:53;19.10;99.90
10451;DHT22;5273;51.290;6.918;2022-08-19T02:40:37;19.10;99.90
10451;DHT22;5273;51.290;6.918;2022-08-19T02:43:05;19.20;99.90
10451;DHT22;5273;51.290;6.918;2022-08-19T02:45:35;19.10;99.90
10451;DHT22;5273;51.290;6.918;2022-08-19T02:48:03;19.10;99.90
10451;DHT22;5273;51.290;6.918;2022-08-19T02:50:30;19.10;99.90
10451;DHT22;5273;51.290;6.918;2022-08-19T02:52:57;19.10;99.90
10451;DHT22;5273;51.290;6.918;2022-08-19T02:55:24;19.00;99.90
10451;DHT22;5273;51.290;6.918;2022-08-19T02:57:51;19.00;99.90
10451;DHT22;5273;51.290;6.918;2022-08-19T03:00:17;19.00;99.90
10451;DHT22;5273;51.290;6.918;2022-08-19T03:02:46;18.90;99.90
10451;DHT22;5273;51.290;6.918;2022-08-19T03:05:14;19.00;99.90
10451;DHT22;5273;51.290;6.918;2022-08-19T03:07:41;18.90;99.90
10451;DHT22;5273;51.290;6.918;2022-08-19T03:10:08;18.90;99.90
10451;DHT22;5273;51.290;6.918;2022-08-19T03:12:36;18.90;99.90
10451;DHT22;5273;51.290;6.918;2022-08-19T03:15:04;18.90;99.90
10451;DHT22;5273;51.290;6.918;2022-08-19T03:17:31;18.90;99.90
10451;DHT22;5273;51.290;6.918;2022-08-19T03:20:00;18.90;99.90
10451;DHT22;5273;51.290;6.918;2022-08-19T03:22:27;19.00;99.90
10451;DHT22;5273;51.290;6.918;2022-08-19T03:24:55;19.00;99.90
10451;DHT22;5273;51.290;6.918;2022-08-19T03:27:22;18.90;99.90
10451;DHT22;5273;51.290;6.918;2022-08-19T03:29:49;18.90;99.90
10451;DHT22;5273;51.290;6.918;2022-08-19T03:32:16;18.80;99.90
10451;DHT22;5273;51.290;6.918;2022-08-19T03:34:43;18.80;99.90
10451;DHT22;5273;51.290;6.918;2022-08-19T03:37:12;18.80;99.90
10451;DHT22;5273;51.290;6.918;2022-08-19T03:39:40;18.80;99.90
10451;DHT22;5273;51.290;6.918;2022-08-19T03:42:08;18.90;99.90
10451;DHT22;5273;51.290;6.918;2022-08-19T03:44:35;18.90;99.90
10451;DHT22;5273;51.290;6.918;2022-08-19T03:47:03;18.80;99.90
10451;DHT22;5273;51.290;6.918;2022-08-19T03:49:31;18.80;99.90
10451;DHT22;5273;51.290;6.918;2022-08-19T03:52:00;18.80;99.90
10451;DHT22;5273;51.290;6.918;2022-08-19T03:54:29;18.80;99.90
10451;DHT22;5273;51.290;6.918;2022-08-19T03:56:56;18.80;99.90
10451;DHT22;5273;51.290;6.918;2022-08-19T03:59:25;18.70;99.90
10451;DHT22;5273;51.290;6.918;2022-08-19T04:01:53;18.70;99.90
10451;DHT22;5273;51.290;6.918;2022-08-19T04:04:20;18.60;99.90
10451;DHT22;5273;51.290;6.918;2022-08-19T04:06:47;18.50;99.90
10451;DHT22;5273;51.290;6.918;2022-08-19T04:09:14;18.50;99.90
10451;DHT22;5273;51.290;6.918;2022-08-19T04:11:46;18.50;99.90
10451;DHT22;5273;51.290;6.918;2022-08-19T04:14:15;18.50;99.90
10451;DHT22;5273;51.290;6.918;2022-08-19T04:16:43;18.50;99.90
10451;DHT22;5273;51.290;6.918;2022-08-19T04:19:11;18.50;99.90
10451;DHT22;5273;51.290;6.918;2022-08-19T04:21:38;18.60;99.90
10451;DHT22;5273;51.290;6.918;2022-08-19T04:24:05;18.50;99.90
10451;DHT22;5273;51.290;6.918;2022-08-19T04:26:34;18.60;99.90
10451;DHT22;5273;51.290;6.918;2022-08-19T04:29:07;18.60;99.90
10451;DHT22;5273;51.290;6.918;2022-08-19T04:31:34;18.70;99.90
10451;DHT22;5273;51.290;6.918;2022-08-19T04:34:03;18.70;99.90
10451;DHT22;5273;51.290;6.918;2022-08-19T04:36:35;18.70;99.90
10451;DHT22;5273;51.290;6.918;2022-08-19T04:39:05;18.60;99.90
10451;DHT22;5273;51.290;6.918;2022-08-19T04:41:32;18.50;99.90
10451;DHT22;5273;51.290;6.918;2022-08-19T04:44:18;18.50;99.90
10451;DHT22;5273;51.290;6.918;2022-08-19T04:46:45;18.50;99.90
10451;DHT22;5273;51.290;6.918;2022-08-19T04:49:14;18.50;99.90
10451;DHT22;5273;51.290;6.918;2022-08-19T04:51:43;18.50;99.90
10451;DHT22;5273;51.290;6.918;2022-08-19T04:54:10;18.50;99.90
10451;DHT22;5273;51.290;6.918;2022-08-19T04:56:39;18.40;99.90
10451;DHT22;5273;51.290;6.918;2022-08-19T04:59:06;18.50;99.90
10451;DHT22;5273;51.290;6.918;2022-08-19T05:01:35;18.50;99.90
10451;DHT22;5273;51.290;6.918;2022-08-19T05:04:04;18.50;99.90
10451;DHT22;5273;51.290;6.918;2022-08-19T05:06:32;18.60;99.90
10451;DHT22;5273;51.290;6.918;2022-08-19T05:08:59;18.50;99.90
10451;DHT22;5273;51.290;6.918;2022-08-19T05:11:29;18.50;99.90
10451;DHT22;5273;51.290;6.918;2022-08-19T05:13:56;18.50;99.90
10451;DHT22;5273;51.290;6.918;2022-08-19T05:16:25;18.50;99.90
10451;DHT22;5273;51.290;6.918;2022-08-19T05:18:54;18.60;99.90
10451;DHT22;5273;51.290;6.918;2022-08-19T05:21:40;18.60;99.90
10451;DHT22;5273;51.290;6.918;2022-08-19T05:24:25;18.70;99.90
10451;DHT22;5273;51.290;6.918;2022-08-19T05:26:53;18.70;99.90
10451;DHT22;5273;51.290;6.918;2022-08-19T05:29:23;18.80;99.90
10451;DHT22;5273;51.290;6.918;2022-08-19T05:31:51;18.90;99.90
10451;DHT22;5273;51.290;6.918;2022-08-19T05:34:21;19.00;99.90
10451;DHT22;5273;51.290;6.918;2022-08-19T05:36:51;19.10;99.90
10451;DHT22;5273;51.290;6.918;2022-08-19T05:39:24;19.30;99.90
10451;DHT22;5273;51.290;6.918;2022-08-19T05:41:53;19.40;99.90
10451;DHT22;5273;51.290;6.918;2022-08-19T05:44:23;19.50;99.90
10451;DHT22;5273;51.290;6.918;2022-08-19T05:46:50;19.60;99.90
10451;DHT22;5273;51.290;6.918;2022-08-19T05:49:22;19.70;99.90
10451;DHT22;5273;51.290;6.918;2022-08-19T05:51:50;19.90;99.90
10451;DHT22;5273;51.290;6.918;2022-08-19T05:54:17;20.10;99.90
10451;DHT22;5273;51.290;6.918;2022-08-19T05:56:45;20.20;99.90
10451;DHT22;5273;51.290;6.918;2022-08-19T05:59:14;20.40;99.90
10451;DHT22;5273;51.290;6.918;2022-08-19T06:01:44;20.50;99.90
10451;DHT22;5273;51.290;6.918;2022-08-19T06:04:12;20.70;99.90
10451;DHT22;5273;51.290;6.918;2022-08-19T06:06:41;20.80;99.90
10451;DHT22;5273;51.290;6.918;2022-08-19T06:09:08;21.00;99.90
10451;DHT22;5273;51.290;6.918;2022-08-19T06:11:38;21.20;99.90
10451;DHT22;5273;51.290;6.918;2022-08-19T06:14:07;21.30;99.90
10451;DHT22;5273;51.290;6.918;2022-08-19T06:16:35;21.50;99.90
10451;DHT22;5273;51.290;6.918;2022-08-19T06:19:04;21.60;99.90
10451;DHT22;5273;51.290;6.918;2022-08-19T06:21:33;21.70;99.90
10451;DHT22;5273;51.290;6.918;2022-08-19T06:24:05;21.70;99.90
10451;DHT22;5273;51.290;6.918;2022-08-19T06:26:33;21.90;99.90
10451;DHT22;5273;51.290;6.918;2022-08-19T06:29:01;22.10;99.90
10451;DHT22;5273;51.290;6.918;2022-08-19T06:31:29;22.30;99.90
10451;DHT22;5273;51.290;6.918;2022-08-19T06:33:58;22.60;99.40
10451;DHT22;5273;51.290;6.918;2022-08-19T06:36:29;22.70;99.30
10451;DHT22;5273;51.290;6.918;2022-08-19T06:38:59;23.00;98.80
10451;DHT22;5273;51.290;6.918;2022-08-19T06:41:28;23.50;98.40
10451;DHT22;5273;51.290;6.918;2022-08-19T06:43:56;24.00;97.20
10451;DHT22;5273;51.290;6.918;2022-08-19T06:46:23;24.50;95.80
10451;DHT22;5273;51.290;6.918;2022-08-19T06:48:50;24.70;94.90
10451;DHT22;5273;51.290;6.918;2022-08-19T06:51:19;24.90;94.10
10451;DHT22;5273;51.290;6.918;2022-08-19T06:53:46;25.10;93.30
10451;DHT22;5273;51.290;6.918;2022-08-19T06:56:14;25.40;92.70
10451;DHT22;5273;51.290;6.918;2022-08-19T06:58:42;25.50;92.00
10451;DHT22;5273;51.290;6.918;2022-08-19T07:01:09;25.60;91.50
10451;DHT22;5273;51.290;6.918;2022-08-19T07:03:38;25.70;91.40
10451;DHT22;5273;51.290;6.918;2022-08-19T07:06:06;25.80;91.10
10451;DHT22;5273;51.290;6.918;2022-08-19T07:08:33;25.90;90.70
10451;DHT22;5273;51.290;6.918;2022-08-19T07:11:02;26.10;90.80
10451;DHT22;5273;51.290;6.918;2022-08-19T07:13:32;26.50;90.00
10451;DHT22;5273;51.290;6.918;2022-08-19T07:16:03;26.70;88.30
10451;DHT22;5273;51.290;6.918;2022-08-19T07:18:29;27.00;87.90
10451;DHT22;5273;51.290;6.918;2022-08-19T07:21:03;27.30;86.10
10451;DHT22;5273;51.290;6.918;2022-08-19T07:23:30;27.60;84.70
10451;DHT22;5273;51.290;6.918;2022-08-19T07:25:56;27.90;83.30
10451;DHT22;5273;51.290;6.918;2022-08-19T07:28:23;28.10;82.00
10451;DHT22;5273;51.290;6.918;2022-08-19T07:30:51;28.30;80.00
10451;DHT22;5273;51.290;6.918;2022-08-19T07:33:19;28.50;78.70
10451;DHT22;5273;51.290;6.918;2022-08-19T07:35:46;28.70;78.00
10451;DHT22;5273;51.290;6.918;2022-08-19T07:38:13;28.80;76.80
10451;DHT22;5273;51.290;6.918;2022-08-19T07:40:40;29.10;76.00
10451;DHT22;5273;51.290;6.918;2022-08-19T07:43:09;29.20;74.30
10451;DHT22;5273;51.290;6.918;2022-08-19T07:45:35;29.20;73.80
10451;DHT22;5273;51.290;6.918;2022-08-19T07:48:03;29.10;72.70
10451;DHT22;5273;51.290;6.918;2022-08-19T07:50:31;28.90;72.60
10451;DHT22;5273;51.290;6.918;2022-08-19T07:52:58;28.60;73.50
10451;DHT22;5273;51.290;6.918;2022-08-19T07:55:26;28.40;73.90
10451;DHT22;5273;51.290;6.918;2022-08-19T07:57:52;28.20;74.40
10451;DHT22;5273;51.290;6.918;2022-08-19T08:00:19;28.00;74.50
10451;DHT22;5273;51.290;6.918;2022-08-19T08:02:46;27.90;75.40
10451;DHT22;5273;51.290;6.918;2022-08-19T08:05:13;28.00;75.80
10451;DHT22;5273;51.290;6.918;2022-08-19T08:07:59;28.00;75.30
10451;DHT22;5273;51.290;6.918;2022-08-19T08:10:43;28.20;74.90
10451;DHT22;5273;51.290;6.918;2022-08-19T08:13:10;28.30;74.60
10451;DHT22;5273;51.290;6.918;2022-08-19T08:15:38;28.80;74.00
10451;DHT22;5273;51.290;6.918;2022-08-19T08:18:05;29.40;72.50
10451;DHT22;5273;51.290;6.918;2022-08-19T08:20:33;30.20;69.00
10451;DHT22;5273;51.290;6.918;2022-08-19T08:23:01;31.10;66.50
10451;DHT22;5273;51.290;6.918;2022-08-19T08:25:46;32.00;62.80
10451;DHT22;5273;51.290;6.918;2022-08-19T08:28:14;32.80;59.10
10451;DHT22;5273;51.290;6.918;2022-08-19T08:30:41;33.50;56.90
10451;DHT22;5273;51.290;6.918;2022-08-19T08:33:09;34.20;54.60
10451;DHT22;5273;51.290;6.918;2022-08-19T08:35:36;34.80;52.50
10451;DHT22;5273;51.290;6.918;2022-08-19T08:38:05;35.40;50.90
10451;DHT22;5273;51.290;6.918;2022-08-19T08:40:38;36.10;49.00
10451;DHT22;5273;51.290;6.918;2022-08-19T08:43:20;36.60;47.20
10451;DHT22;5273;51.290;6.918;2022-08-19T08:45:53;37.00;44.80
10451;DHT22;5273;51.290;6.918;2022-08-19T08:48:27;36.80;44.40
10451;DHT22;5273;51.290;6.918;2022-08-19T08:50:59;36.40;44.40
10451;DHT22;5273;51.290;6.918;2022-08-19T08:53:31;35.90;44.40
10451;DHT22;5273;51.290;6.918;2022-08-19T08:56:02;35.30;45.20
10451;DHT22;5273;51.290;6.918;2022-08-19T08:58:36;34.90;46.60
10451;DHT22;5273;51.290;6.918;2022-08-19T09:01:09;34.60;47.00
10451;DHT22;5273;51.290;6.918;2022-08-19T09:03:37;34.30;47.90
10451;DHT22;5273;51.290;6.918;2022-08-19T09:06:11;34.30;48.50
10451;DHT22;5273;51.290;6.918;2022-08-19T09:08:47;34.50;47.30
10451;DHT22;5273;51.290;6.918;2022-08-19T09:11:21;35.00;47.20
10451;DHT22;5273;51.290;6.918;2022-08-19T09:13:59;35.40;46.80
10451;DHT22;5273;51.290;6.918;2022-08-19T09:16:28;36.00;45.00
10451;DHT22;5273;51.290;6.918;2022-08-19T09:18:58;36.40;44.30
10451;DHT22;5273;51.290;6.918;2022-08-19T09:21:27;36.30;43.50
10451;DHT22;5273;51.290;6.918;2022-08-19T09:23:55;36.20;43.40
10451;DHT22;5273;51.290;6.918;2022-08-19T09:26:23;36.20;42.80
10451;DHT22;5273;51.290;6.918;2022-08-19T09:28:51;36.30;42.50
10451;DHT22;5273;51.290;6.918;2022-08-19T09:31:22;36.60;41.10
10451;DHT22;5273;51.290;6.918;2022-08-19T09:33:49;36.80;39.40
10451;DHT22;5273;51.290;6.918;2022-08-19T09:36:18;36.80;39.30
10451;DHT22;5273;51.290;6.918;2022-08-19T09:38:46;36.40;39.70
10451;DHT22;5273;51.290;6.918;2022-08-19T09:41:16;36.10;41.20
10451;DHT22;5273;51.290;6.918;2022-08-19T09:43:46;35.80;40.70
10451;DHT22;5273;51.290;6.918;2022-08-19T09:46:13;35.50;41.30
10451;DHT22;5273;51.290;6.918;2022-08-19T09:48:42;35.40;41.40
10451;DHT22;5273;51.290;6.918;2022-08-19T09:51:11;35.50;41.70
10451;DHT22;5273;51.290;6.918;2022-08-19T09:53:41;36.00;41.40
10451;DHT22;5273;51.290;6.918;2022-08-19T09:56:09;36.40;39.70
10451;DHT22;5273;51.290;6.918;2022-08-19T09:58:38;36.80;38.50
10451;DHT22;5273;51.290;6.918;2022-08-19T10:01:06;37.10;38.30
10451;DHT22;5273;51.290;6.918;2022-08-19T10:03:35;37.30;38.00
10451;DHT22;5273;51.290;6.918;2022-08-19T10:06:04;37.40;37.40
10451;DHT22;5273;51.290;6.918;2022-08-19T10:08:34;37.40;37.60
10451;DHT22;5273;51.290;6.918;2022-08-19T10:11:02;37.50;37.50
10451;DHT22;5273;51.290;6.918;2022-08-19T10:13:30;37.60;37.30
10451;DHT22;5273;51.290;6.918;2022-08-19T10:16:04;37.50;36.90
10451;DHT22;5273;51.290;6.918;2022-08-19T10:18:32;37.40;37.50
10451;DHT22;5273;51.290;6.918;2022-08-19T10:21:05;37.50;37.90
10451;DHT22;5273;51.290;6.918;2022-08-19T10:23:34;37.70;36.90
10451;DHT22;5273;51.290;6.918;2022-08-19T10:26:02;37.90;37.00
10451;DHT22;5273;51.290;6.918;2022-08-19T10:28:32;38.20;37.50
10451;DHT22;5273;51.290;6.918;2022-08-19T10:31:05;38.60;36.30
10451;DHT22;5273;51.290;6.918;2022-08-19T10:33:32;38.90;35.60
10451;DHT22;5273;51.290;6.918;2022-08-19T10:36:01;39.30;34.50
10451;DHT22;5273;51.290;6.918;2022-08-19T10:38:28;39.60;34.90
10451;DHT22;5273;51.290;6.918;2022-08-19T10:40:55;39.90;33.30
10451;DHT22;5273;51.290;6.918;2022-08-19T10:43:22;39.80;32.80
10451;DHT22;5273;51.290;6.918;2022-08-19T10:45:52;39.30;33.60
10451;DHT22;5273;51.290;6.918;2022-08-19T10:48:22;39.00;34.70
10451;DHT22;5273;51.290;6.918;2022-08-19T10:50:49;38.60;33.90
10451;DHT22;5273;51.290;6.918;2022-08-19T10:53:33;38.00;35.00
10451;DHT22;5273;51.290;6.918;2022-08-19T10:56:00;37.60;35.80
10451;DHT22;5273;51.290;6.918;2022-08-19T10:58:44;37.30;36.70
10451;DHT22;5273;51.290;6.918;2022-08-19T11:01:11;36.90;37.00
10451;DHT22;5273;51.290;6.918;2022-08-19T11:03:39;36.40;36.70
10451;DHT22;5273;51.290;6.918;2022-08-19T11:06:08;36.20;37.70
10451;DHT22;5273;51.290;6.918;2022-08-19T11:08:35;36.00;38.30
10451;DHT22;5273;51.290;6.918;2022-08-19T11:11:03;35.70;38.20
10451;DHT22;5273;51.290;6.918;2022-08-19T11:13:32;35.40;38.80
10451;DHT22;5273;51.290;6.918;2022-08-19T11:16:02;34.90;39.10
10451;DHT22;5273;51.290;6.918;2022-08-19T11:18:29;34.60;40.40
10451;DHT22;5273;51.290;6.918;2022-08-19T11:21:07;34.50;40.40
10451;DHT22;5273;51.290;6.918;2022-08-19T11:23:34;34.40;40.20
10451;DHT22;5273;51.290;6.918;2022-08-19T11:26:01;34.30;39.70
10451;DHT22;5273;51.290;6.918;2022-08-19T11:28:28;34.00;40.30
10451;DHT22;5273;51.290;6.918;2022-08-19T11:30:55;33.70;40.60
10451;DHT22;5273;51.290;6.918;2022-08-19T11:33:22;33.70;41.00
10451;DHT22;5273;51.290;6.918;2022-08-19T11:35:52;33.50;42.00
10451;DHT22;5273;51.290;6.918;2022-08-19T11:38:20;33.30;41.60
10451;DHT22;5273;51.290;6.918;2022-08-19T11:40:57;33.30;41.10
10451;DHT22;5273;51.290;6.918;2022-08-19T11:43:24;33.30;41.10
10451;DHT22;5273;51.290;6.918;2022-08-19T11:45:52;33.20;41.20
10451;DHT22;5273;51.290;6.918;2022-08-19T11:48:19;33.20;41.80
10451;DHT22;5273;51.290;6.918;2022-08-19T11:50:47;33.20;41.40
10451;DHT22;5273;51.290;6.918;2022-08-19T11:53:15;33.20;41.30
10451;DHT22;5273;51.290;6.918;2022-08-19T11:55:43;33.30;41.90
10451;DHT22;5273;51.290;6.918;2022-08-19T11:58:10;33.30;41.40
10451;DHT22;5273;51.290;6.918;2022-08-19T12:00:38;33.40;41.90
10451;DHT22;5273;51.290;6.918;2022-08-19T12:03:05;33.40;41.00
10451;DHT22;5273;51.290;6.918;2022-08-19T12:05:32;33.40;41.70
10451;DHT22;5273;51.290;6.918;2022-08-19T12:07:59;33.50;42.10
10451;DHT22;5273;51.290;6.918;2022-08-19T12:10:26;33.50;40.30
10451;DHT22;5273;51.290;6.918;2022-08-19T12:12:54;33.40;40.60
10451;DHT22;5273;51.290;6.918;2022-08-19T12:15:21;33.40;40.50
10451;DHT22;5273;51.290;6.918;2022-08-19T12:17:48;33.10;41.10
10451;DHT22;5273;51.290;6.918;2022-08-19T12:20:15;32.80;40.30
10451;DHT22;5273;51.290;6.918;2022-08-19T12:22:42;32.60;40.80
10451;DHT22;5273;51.290;6.918;2022-08-19T12:25:11;32.40;41.10
10451;DHT22;5273;51.290;6.918;2022-08-19T12:27:39;32.40;41.80
10451;DHT22;5273;51.290;6.918;2022-08-19T12:30:10;32.40;41.50
10451;DHT22;5273;51.290;6.918;2022-08-19T12:32:37;32.40;41.70
10451;DHT22;5273;51.290;6.918;2022-08-19T12:35:05;32.40;41.60
10451;DHT22;5273;51.290;6.918;2022-08-19T12:37:32;32.30;42.30
10451;DHT22;5273;51.290;6.918;2022-08-19T12:39:59;32.40;42.10
10451;DHT22;5273;51.290;6.918;2022-08-19T12:42:26;32.40;42.00
10451;DHT22;5273;51.290;6.918;2022-08-19T12:44:53;32.40;41.70
10451;DHT22;5273;51.290;6.918;2022-08-19T12:47:21;32.40;41.70
10451;DHT22;5273;51.290;6.918;2022-08-19T12:49:49;32.20;41.60
10451;DHT22;5273;51.290;6.918;2022-08-19T12:52:16;32.20;40.90
10451;DHT22;5273;51.290;6.918;2022-08-19T12:54:46;32.00;40.90
10451;DHT22;5273;51.290;6.918;2022-08-19T12:57:13;31.90;41.40
10451;DHT22;5273;51.290;6.918;2022-08-19T12:59:40;31.90;41.80
10451;DHT22;5273;51.290;6.918;2022-08-19T13:02:08;32.00;41.50
10451;DHT22;5273;51.290;6.918;2022-08-19T13:04:37;32.00;39.80
10451;DHT22;5273;51.290;6.918;2022-08-19T13:07:06;32.00;40.00
10451;DHT22;5273;51.290;6.918;2022-08-19T13:09:34;32.10;40.30
10451;DHT22;5273;51.290;6.918;2022-08-19T13:12:02;32.20;40.20
10451;DHT22;5273;51.290;6.918;2022-08-19T13:14:33;32.20;41.00
10451;DHT22;5273;51.290;6.918;2022-08-19T13:17:00;32.20;41.00
10451;DHT22;5273;51.290;6.918;2022-08-19T13:19:26;32.20;40.50
10451;DHT22;5273;51.290;6.918;2022-08-19T13:21:55;32.10;40.40
10451;DHT22;5273;51.290;6.918;2022-08-19T13:24:23;31.90;40.60
10451;DHT22;5273;51.290;6.918;2022-08-19T13:26:50;31.70;39.80
10451;DHT22;5273;51.290;6.918;2022-08-19T13:29:17;31.40;40.30
10451;DHT22;5273;51.290;6.918;2022-08-19T13:32:01;31.30;40.40
10451;DHT22;5273;51.290;6.918;2022-08-19T13:34:45;31.30;40.70
10451;DHT22;5273;51.290;6.918;2022-08-19T13:37:14;31.20;40.50
10451;DHT22;5273;51.290;6.918;2022-08-19T13:39:41;31.00;41.40
10451;DHT22;5273;51.290;6.918;2022-08-19T13:42:08;31.00;42.00
10451;DHT22;5273;51.290;6.918;2022-08-19T13:44:36;31.00;42.50
10451;DHT22;5273;51.290;6.918;2022-08-19T13:47:04;31.10;42.40
10451;DHT22;5273;51.290;6.918;2022-08-19T13:49:33;31.10;41.70
10451;DHT22;5273;51.290;6.918;2022-08-19T13:52:01;31.20;41.20
10451;DHT22;5273;51.290;6.918;2022-08-19T13:54:30;31.20;40.40
10451;DHT22;5273;51.290;6.918;2022-08-19T13:56:56;31.20;41.10
10451;DHT22;5273;51.290;6.918;2022-08-19T13:59:23;31.10;41.50
10451;DHT22;5273;51.290;6.918;2022-08-19T14:01:50;31.20;41.00
10451;DHT22;5273;51.290;6.918;2022-08-19T14:04:17;31.20;41.40
10451;DHT22;5273;51.290;6.918;2022-08-19T14:06:44;31.20;40.20
10451;DHT22;5273;51.290;6.918;2022-08-19T14:09:11;31.20;39.80
10451;DHT22;5273;51.290;6.918;2022-08-19T14:11:39;31.20;39.80
10451;DHT22;5273;51.290;6.918;2022-08-19T14:14:06;31.20;39.60
10451;DHT22;5273;51.290;6.918;2022-08-19T14:16:33;31.20;40.50
10451;DHT22;5273;51.290;6.918;2022-08-19T14:19:00;31.10;40.70
10451;DHT22;5273;51.290;6.918;2022-08-19T14:21:27;31.10;40.80
10451;DHT22;5273;51.290;6.918;2022-08-19T14:23:54;31.10;41.60
10451;DHT22;5273;51.290;6.918;2022-08-19T14:26:23;31.10;41.10
10451;DHT22;5273;51.290;6.918;2022-08-19T14:28:51;31.10;41.90
10451;DHT22;5273;51.290;6.918;2022-08-19T14:31:19;31.20;40.60
10451;DHT22;5273;51.290;6.918;2022-08-19T14:33:50;31.00;40.90
10451;DHT22;5273;51.290;6.918;2022-08-19T14:36:17;31.00;41.70
10451;DHT22;5273;51.290;6.918;2022-08-19T14:38:44;31.00;40.90
10451;DHT22;5273;51.290;6.918;2022-08-19T14:41:13;31.00;40.60
10451;DHT22;5273;51.290;6.918;2022-08-19T14:43:42;31.10;41.30
10451;DHT22;5273;51.290;6.918;2022-08-19T14:46:13;31.10;41.00
10451;DHT22;5273;51.290;6.918;2022-08-19T14:48:40;31.10;40.30
10451;DHT22;5273;51.290;6.918;2022-08-19T14:51:07;31.00;40.00
10451;DHT22;5273;51.290;6.918;2022-08-19T14:53:35;30.90;41.10
10451;DHT22;5273;51.290;6.918;2022-08-19T14:56:06;30.90;41.40
10451;DHT22;5273;51.290;6.918;2022-08-19T14:58:33;30.90;41.40
10451;DHT22;5273;51.290;6.918;2022-08-19T15:01:00;30.90;41.50
10451;DHT22;5273;51.290;6.918;2022-08-19T15:03:30;30.80;41.70
10451;DHT22;5273;51.290;6.918;2022-08-19T15:05:59;30.70;41.20
10451;DHT22;5273;51.290;6.918;2022-08-19T15:08:27;30.70;41.80
10451;DHT22;5273;51.290;6.918;2022-08-19T15:10:55;30.70;42.30
10451;DHT22;5273;51.290;6.918;2022-08-19T15:13:23;30.50;42.60
10451;DHT22;5273;51.290;6.918;2022-08-19T15:15:50;30.40;43.20
10451;DHT22;5273;51.290;6.918;2022-08-19T15:18:18;30.20;44.00
10451;DHT22;5273;51.290;6.918;2022-08-19T15:20:47;30.10;44.40
10451;DHT22;5273;51.290;6.918;2022-08-19T15:23:14;29.90;44.50
10451;DHT22;5273;51.290;6.918;2022-08-19T15:25:41;29.90;45.40
10451;DHT22;5273;51.290;6.918;2022-08-19T15:28:09;30.00;44.20
10451;DHT22;5273;51.290;6.918;2022-08-19T15:30:37;30.10;43.90
10451;DHT22;5273;51.290;6.918;2022-08-19T15:33:04;30.10;43.00
10451;DHT22;5273;51.290;6.918;2022-08-19T15:35:31;30.10;43.50
10451;DHT22;5273;51.290;6.918;2022-08-19T15:37:59;30.10;42.20
10451;DHT22;5273;51.290;6.918;2022-08-19T15:40:26;30.10;43.00
10451;DHT22;5273;51.290;6.918;2022-08-19T15:42:53;30.00;42.30
10451;DHT22;5273;51.290;6.918;2022-08-19T15:45:21;30.00;43.00
10451;DHT22;5273;51.290;6.918;2022-08-19T15:47:48;30.10;43.00
10451;DHT22;5273;51.290;6.918;2022-08-19T15:50:18;30.10;42.20
10451;DHT22;5273;51.290;6.918;2022-08-19T15:52:47;30.00;42.50
10451;DHT22;5273;51.290;6.918;2022-08-19T15:55:16;30.00;43.30